sensor_id;sensor_type;location;lat;lon;timestamp;P1;durP1;ratioP1;P2;durP2;ratioP2
60908;SDS011;46780;48.128;-1.704;2022-09-03T00:02:26;44.95;;;28.90;;
60908;SDS011;46780;48.128;-1.704;2022-09-03T00:05:02;44.55;;;29.67;;
60908;SDS011;46780;48.128;-1.704;2022-09-03T00:07:34;47.25;;;28.90;;
60908;SDS011;46780;48.128;-1.704;2022-09-03T00:10:07;45.95;;;27.80;;
60908;SDS011;46780;48.128;-1.704;2022-09-03T00:12:37;43.03;;;28.00;;
60908;SDS011;46780;48.128;-1.704;2022-09-03T00:17:36;45.28;;;26.92;;
60908;SDS011;46780;48.128;-1.704;2022-09-03T00:20:09;44.58;;;26.10;;
60908;SDS011;46780;48.128;-1.704;2022-09-03T00:22:40;42.97;;;27.25;;
60908;SDS011;46780;48.128;-1.704;2022-09-03T00:25:12;41.03;;;27.40;;
60908;SDS011;46780;48.128;-1.704;2022-09-03T00:27:43;48.63;;;27.40;;
60908;SDS011;46780;48.128;-1.704;2022-09-03T00:30:14;43.72;;;27.40;;
60908;SDS011;46780;48.128;-1.704;2022-09-03T00:32:43;47.13;;;29.23;;
60908;SDS011;46780;48.128;-1.704;2022-09-03T00:35:15;49.53;;;28.83;;
60908;SDS011;46780;48.128;-1.704;2022-09-03T00:37:47;46.22;;;27.30;;
60908;SDS011;46780;48.128;-1.704;2022-09-03T00:40:16;43.95;;;28.50;;
60908;SDS011;46780;48.128;-1.704;2022-09-03T00:42:57;46.60;;;26.58;;
60908;SDS011;46780;48.128;-1.704;2022-09-03T00:45:31;41.80;;;27.65;;
60908;SDS011;46780;48.128;-1.704;2022-09-03T00:48:06;46.60;;;27.45;;
60908;SDS011;46780;48.128;-1.704;2022-09-03T00:50:54;48.88;;;28.27;;
60908;SDS011;46780;48.128;-1.704;2022-09-03T00:53:34;43.60;;;27.38;;
60908;SDS011;46780;48.128;-1.704;2022-09-03T00:56:11;47.42;;;28.63;;
60908;SDS011;46780;48.128;-1.704;2022-09-03T00:58:50;43.42;;;27.10;;
60908;SDS011;46780;48.128;-1.704;2022-09-03T01:01:34;45.47;;;27.70;;
60908;SDS011;46780;48.128;-1.704;2022-09-03T01:04:08;43.75;;;28.00;;
60908;SDS011;46780;48.128;-1.704;2022-09-03T01:06:54;46.45;;;27.88;;
60908;SDS011;46780;48.128;-1.704;2022-09-03T01:09:29;46.22;;;29.10;;
60908;SDS011;46780;48.128;-1.704;2022-09-03T01:12:11;42.03;;;26.83;;
60908;SDS011;46780;48.128;-1.704;2022-09-03T01:14:49;48.42;;;28.65;;
60908;SDS011;46780;48.128;-1.704;2022-09-03T01:17:28;47.22;;;28.83;;
60908;SDS011;46780;48.128;-1.704;2022-09-03T01:20:11;52.75;;;28.88;;
60908;SDS011;46780;48.128;-1.704;2022-09-03T01:23:12;52.83;;;27.85;;
60908;SDS011;46780;48.128;-1.704;2022-09-03T01:26:02;47.70;;;30.35;;
60908;SDS011;46780;48.128;-1.704;2022-09-03T01:28:43;50.17;;;29.08;;
60908;SDS011;46780;48.128;-1.704;2022-09-03T01:31:21;47.65;;;29.33;;
60908;SDS011;46780;48.128;-1.704;2022-09-03T01:33:56;50.85;;;30.00;;
60908;SDS011;46780;48.128;-1.704;2022-09-03T01:36:36;50.47;;;29.67;;
60908;SDS011;46780;48.128;-1.704;2022-09-03T01:39:15;47.25;;;29.85;;
60908;SDS011;46780;48.128;-1.704;2022-09-03T01:41:47;52.47;;;30.90;;
60908;SDS011;46780;48.128;-1.704;2022-09-03T01:44:27;54.10;;;29.77;;
60908;SDS011;46780;48.128;-1.704;2022-09-03T01:47:01;55.25;;;30.13;;
60908;SDS011;46780;48.128;-1.704;2022-09-03T01:49:36;54.30;;;28.77;;
60908;SDS011;46780;48.128;-1.704;2022-09-03T01:52:21;54.00;;;29.65;;
60908;SDS011;46780;48.128;-1.704;2022-09-03T01:55:00;51.38;;;28.95;;
60908;SDS011;46780;48.128;-1.704;2022-09-03T01:57:38;52.45;;;28.73;;
60908;SDS011;46780;48.128;-1.704;2022-09-03T02:00:12;57.30;;;30.52;;
60908;SDS011;46780;48.128;-1.704;2022-09-03T02:02:40;59.53;;;31.05;;
60908;SDS011;46780;48.128;-1.704;2022-09-03T02:05:10;47.22;;;29.38;;
60908;SDS011;46780;48.128;-1.704;2022-09-03T02:07:39;49.00;;;30.35;;
60908;SDS011;46780;48.128;-1.704;2022-09-03T02:10:07;47.55;;;29.70;;
60908;SDS011;46780;48.128;-1.704;2022-09-03T02:12:36;53.30;;;31.03;;
60908;SDS011;46780;48.128;-1.704;2022-09-03T02:15:05;52.75;;;30.35;;
60908;SDS011;46780;48.128;-1.704;2022-09-03T02:17:37;49.53;;;30.52;;
60908;SDS011;46780;48.128;-1.704;2022-09-03T02:20:07;50.25;;;31.38;;
60908;SDS011;46780;48.128;-1.704;2022-09-03T02:22:36;53.28;;;31.60;;
60908;SDS011;46780;48.128;-1.704;2022-09-03T02:25:04;53.40;;;32.13;;
60908;SDS011;46780;48.128;-1.704;2022-09-03T02:27:31;52.83;;;31.10;;
60908;SDS011;46780;48.128;-1.704;2022-09-03T02:29:58;60.97;;;32.85;;
60908;SDS011;46780;48.128;-1.704;2022-09-03T02:32:25;58.25;;;33.22;;
60908;SDS011;46780;48.128;-1.704;2022-09-03T02:34:53;61.92;;;32.17;;
60908;SDS011;46780;48.128;-1.704;2022-09-03T02:37:20;56.97;;;31.80;;
60908;SDS011;46780;48.128;-1.704;2022-09-03T02:39:47;54.53;;;31.58;;
60908;SDS011;46780;48.128;-1.704;2022-09-03T02:42:14;53.60;;;32.42;;
60908;SDS011;46780;48.128;-1.704;2022-09-03T02:44:42;61.47;;;33.22;;
60908;SDS011;46780;48.128;-1.704;2022-09-03T02:47:13;52.40;;;32.13;;
60908;SDS011;46780;48.128;-1.704;2022-09-03T02:49:39;58.05;;;30.73;;
60908;SDS011;46780;48.128;-1.704;2022-09-03T02:52:08;53.05;;;31.73;;
60908;SDS011;46780;48.128;-1.704;2022-09-03T02:54:35;50.75;;;31.60;;
60908;SDS011;46780;48.128;-1.704;2022-09-03T02:57:02;56.72;;;33.53;;
60908;SDS011;46780;48.128;-1.704;2022-09-03T02:59:29;55.45;;;32.55;;
60908;SDS011;46780;48.128;-1.704;2022-09-03T03:01:55;61.03;;;33.47;;
60908;SDS011;46780;48.128;-1.704;2022-09-03T03:04:22;55.67;;;32.55;;
60908;SDS011;46780;48.128;-1.704;2022-09-03T03:06:48;62.92;;;35.70;;
60908;SDS011;46780;48.128;-1.704;2022-09-03T03:09:16;61.95;;;35.45;;
60908;SDS011;46780;48.128;-1.704;2022-09-03T03:11:43;62.30;;;36.20;;
60908;SDS011;46780;48.128;-1.704;2022-09-03T03:14:10;60.78;;;36.50;;
60908;SDS011;46780;48.128;-1.704;2022-09-03T03:16:36;57.63;;;35.85;;
60908;SDS011;46780;48.128;-1.704;2022-09-03T03:19:03;67.82;;;36.58;;
60908;SDS011;46780;48.128;-1.704;2022-09-03T03:21:30;67.28;;;37.55;;
60908;SDS011;46780;48.128;-1.704;2022-09-03T03:23:56;66.35;;;38.40;;
60908;SDS011;46780;48.128;-1.704;2022-09-03T03:26:24;71.18;;;39.08;;
60908;SDS011;46780;48.128;-1.704;2022-09-03T03:28:54;67.05;;;40.92;;
60908;SDS011;46780;48.128;-1.704;2022-09-03T03:31:22;77.32;;;42.67;;
60908;SDS011;46780;48.128;-1.704;2022-09-03T03:33:49;86.68;;;43.63;;
60908;SDS011;46780;48.128;-1.704;2022-09-03T03:36:17;77.97;;;43.42;;
60908;SDS011;46780;48.128;-1.704;2022-09-03T03:38:43;76.05;;;42.10;;
60908;SDS011;46780;48.128;-1.704;2022-09-03T03:41:11;81.70;;;42.03;;
60908;SDS011;46780;48.128;-1.704;2022-09-03T03:43:40;80.47;;;43.10;;
60908;SDS011;46780;48.128;-1.704;2022-09-03T03:46:07;83.35;;;44.60;;
60908;SDS011;46780;48.128;-1.704;2022-09-03T03:48:34;78.53;;;43.35;;
60908;SDS011;46780;48.128;-1.704;2022-09-03T03:51:01;83.80;;;42.90;;
60908;SDS011;46780;48.128;-1.704;2022-09-03T03:53:28;87.88;;;44.00;;
60908;SDS011;46780;48.128;-1.704;2022-09-03T03:55:55;81.03;;;44.38;;
60908;SDS011;46780;48.128;-1.704;2022-09-03T03:58:22;80.30;;;44.00;;
60908;SDS011;46780;48.128;-1.704;2022-09-03T04:00:50;77.93;;;42.50;;
60908;SDS011;46780;48.128;-1.704;2022-09-03T04:03:17;92.00;;;46.08;;
60908;SDS011;46780;48.128;-1.704;2022-09-03T04:05:53;82.97;;;47.03;;
60908;SDS011;46780;48.128;-1.704;2022-09-03T04:08:20;95.75;;;50.05;;
60908;SDS011;46780;48.128;-1.704;2022-09-03T04:10:47;88.63;;;47.92;;
60908;SDS011;46780;48.128;-1.704;2022-09-03T04:13:14;92.53;;;48.90;;
60908;SDS011;46780;48.128;-1.704;2022-09-03T04:15:40;86.15;;;48.97;;
60908;SDS011;46780;48.128;-1.704;2022-09-03T04:18:08;97.50;;;50.35;;
60908;SDS011;46780;48.128;-1.704;2022-09-03T04:20:35;94.50;;;51.42;;
60908;SDS011;46780;48.128;-1.704;2022-09-03T04:23:04;90.65;;;50.65;;
60908;SDS011;46780;48.128;-1.704;2022-09-03T04:25:31;92.28;;;51.72;;
60908;SDS011;46780;48.128;-1.704;2022-09-03T04:27:57;95.53;;;51.85;;
60908;SDS011;46780;48.128;-1.704;2022-09-03T04:30:24;99.53;;;53.60;;
60908;SDS011;46780;48.128;-1.704;2022-09-03T04:32:50;100.45;;;52.45;;
60908;SDS011;46780;48.128;-1.704;2022-09-03T04:35:18;94.63;;;52.78;;
60908;SDS011;46780;48.128;-1.704;2022-09-03T04:37:45;91.18;;;51.28;;
60908;SDS011;46780;48.128;-1.704;2022-09-03T04:40:12;96.10;;;51.63;;
60908;SDS011;46780;48.128;-1.704;2022-09-03T04:42:38;95.55;;;52.28;;
60908;SDS011;46780;48.128;-1.704;2022-09-03T04:45:05;120.43;;;55.80;;
60908;SDS011;46780;48.128;-1.704;2022-09-03T04:47:32;98.30;;;54.30;;
60908;SDS011;46780;48.128;-1.704;2022-09-03T04:49:59;105.78;;;54.95;;
60908;SDS011;46780;48.128;-1.704;2022-09-03T04:52:27;107.88;;;54.13;;
60908;SDS011;46780;48.128;-1.704;2022-09-03T04:54:54;96.80;;;52.97;;
60908;SDS011;46780;48.128;-1.704;2022-09-03T04:57:20;106.45;;;54.95;;
60908;SDS011;46780;48.128;-1.704;2022-09-03T04:59:47;98.05;;;52.42;;
60908;SDS011;46780;48.128;-1.704;2022-09-03T05:02:13;101.63;;;53.65;;
60908;SDS011;46780;48.128;-1.704;2022-09-03T05:04:40;95.50;;;53.00;;
60908;SDS011;46780;48.128;-1.704;2022-09-03T05:07:06;95.22;;;52.95;;
60908;SDS011;46780;48.128;-1.704;2022-09-03T05:09:35;101.65;;;54.47;;
60908;SDS011;46780;48.128;-1.704;2022-09-03T05:12:01;92.90;;;51.28;;
60908;SDS011;46780;48.128;-1.704;2022-09-03T05:14:28;91.75;;;52.17;;
60908;SDS011;46780;48.128;-1.704;2022-09-03T05:16:55;94.55;;;51.65;;
60908;SDS011;46780;48.128;-1.704;2022-09-03T05:19:21;88.85;;;49.42;;
60908;SDS011;46780;48.128;-1.704;2022-09-03T05:21:48;88.10;;;52.45;;
60908;SDS011;46780;48.128;-1.704;2022-09-03T05:24:15;91.60;;;50.40;;
60908;SDS011;46780;48.128;-1.704;2022-09-03T05:26:43;94.05;;;52.28;;
60908;SDS011;46780;48.128;-1.704;2022-09-03T05:29:09;82.50;;;49.10;;
60908;SDS011;46780;48.128;-1.704;2022-09-03T05:31:36;81.28;;;48.25;;
60908;SDS011;46780;48.128;-1.704;2022-09-03T05:34:04;89.43;;;48.20;;
60908;SDS011;46780;48.128;-1.704;2022-09-03T05:36:32;85.75;;;51.10;;
60908;SDS011;46780;48.128;-1.704;2022-09-03T05:39:00;88.35;;;48.42;;
60908;SDS011;46780;48.128;-1.704;2022-09-03T05:41:28;82.10;;;48.35;;
60908;SDS011;46780;48.128;-1.704;2022-09-03T05:43:56;79.90;;;48.40;;
60908;SDS011;46780;48.128;-1.704;2022-09-03T05:46:23;88.72;;;50.08;;
60908;SDS011;46780;48.128;-1.704;2022-09-03T05:51:54;85.97;;;48.78;;
60908;SDS011;46780;48.128;-1.704;2022-09-03T05:54:21;94.07;;;52.67;;
60908;SDS011;46780;48.128;-1.704;2022-09-03T05:56:48;85.47;;;49.45;;
60908;SDS011;46780;48.128;-1.704;2022-09-03T05:59:16;95.97;;;50.85;;
60908;SDS011;46780;48.128;-1.704;2022-09-03T06:01:43;87.55;;;49.53;;
60908;SDS011;46780;48.128;-1.704;2022-09-03T06:04:11;94.88;;;50.92;;
60908;SDS011;46780;48.128;-1.704;2022-09-03T06:06:39;91.03;;;51.17;;
60908;SDS011;46780;48.128;-1.704;2022-09-03T06:09:08;93.03;;;49.45;;
60908;SDS011;46780;48.128;-1.704;2022-09-03T06:11:36;94.55;;;50.80;;
60908;SDS011;46780;48.128;-1.704;2022-09-03T06:14:03;91.88;;;49.90;;
60908;SDS011;46780;48.128;-1.704;2022-09-03T06:16:34;87.88;;;48.15;;
60908;SDS011;46780;48.128;-1.704;2022-09-03T06:19:02;99.50;;;52.33;;
60908;SDS011;46780;48.128;-1.704;2022-09-03T06:21:30;112.55;;;54.88;;
60908;SDS011;46780;48.128;-1.704;2022-09-03T06:23:56;107.18;;;55.40;;
60908;SDS011;46780;48.128;-1.704;2022-09-03T06:26:24;107.85;;;55.78;;
60908;SDS011;46780;48.128;-1.704;2022-09-03T06:28:50;111.68;;;54.95;;
60908;SDS011;46780;48.128;-1.704;2022-09-03T06:31:17;115.70;;;56.83;;
60908;SDS011;46780;48.128;-1.704;2022-09-03T06:33:46;112.88;;;54.58;;
60908;SDS011;46780;48.128;-1.704;2022-09-03T06:36:14;123.22;;;58.05;;
60908;SDS011;46780;48.128;-1.704;2022-09-03T06:38:42;126.53;;;58.95;;
60908;SDS011;46780;48.128;-1.704;2022-09-03T06:41:12;130.95;;;59.28;;
60908;SDS011;46780;48.128;-1.704;2022-09-03T06:43:39;127.13;;;59.47;;
60908;SDS011;46780;48.128;-1.704;2022-09-03T06:46:07;130.52;;;58.88;;
60908;SDS011;46780;48.128;-1.704;2022-09-03T06:48:36;128.05;;;58.42;;
60908;SDS011;46780;48.128;-1.704;2022-09-03T06:51:05;142.57;;;60.92;;
60908;SDS011;46780;48.128;-1.704;2022-09-03T06:53:34;141.60;;;59.58;;
60908;SDS011;46780;48.128;-1.704;2022-09-03T06:56:01;138.75;;;61.45;;
60908;SDS011;46780;48.128;-1.704;2022-09-03T06:58:29;130.18;;;62.92;;
60908;SDS011;46780;48.128;-1.704;2022-09-03T07:01:00;125.68;;;60.67;;
60908;SDS011;46780;48.128;-1.704;2022-09-03T07:03:27;131.88;;;60.88;;
60908;SDS011;46780;48.128;-1.704;2022-09-03T07:05:58;134.48;;;61.10;;
60908;SDS011;46780;48.128;-1.704;2022-09-03T07:08:27;136.98;;;61.30;;
60908;SDS011;46780;48.128;-1.704;2022-09-03T07:10:54;135.27;;;60.83;;
60908;SDS011;46780;48.128;-1.704;2022-09-03T07:13:20;136.25;;;61.83;;
60908;SDS011;46780;48.128;-1.704;2022-09-03T07:15:47;139.48;;;61.88;;
60908;SDS011;46780;48.128;-1.704;2022-09-03T07:18:13;135.00;;;59.17;;
60908;SDS011;46780;48.128;-1.704;2022-09-03T07:20:40;124.35;;;56.60;;
60908;SDS011;46780;48.128;-1.704;2022-09-03T07:23:06;122.05;;;58.28;;
60908;SDS011;46780;48.128;-1.704;2022-09-03T07:25:34;127.88;;;59.22;;
60908;SDS011;46780;48.128;-1.704;2022-09-03T07:28:01;129.60;;;59.67;;
60908;SDS011;46780;48.128;-1.704;2022-09-03T07:30:30;120.80;;;54.95;;
60908;SDS011;46780;48.128;-1.704;2022-09-03T07:32:56;117.47;;;54.20;;
60908;SDS011;46780;48.128;-1.704;2022-09-03T07:35:23;110.35;;;51.47;;
60908;SDS011;46780;48.128;-1.704;2022-09-03T07:37:49;109.13;;;53.58;;
60908;SDS011;46780;48.128;-1.704;2022-09-03T07:40:16;117.07;;;54.38;;
60908;SDS011;46780;48.128;-1.704;2022-09-03T07:42:44;104.10;;;50.25;;
60908;SDS011;46780;48.128;-1.704;2022-09-03T07:45:10;107.82;;;52.10;;
60908;SDS011;46780;48.128;-1.704;2022-09-03T07:47:37;103.47;;;50.10;;
60908;SDS011;46780;48.128;-1.704;2022-09-03T07:50:11;108.30;;;51.03;;
60908;SDS011;46780;48.128;-1.704;2022-09-03T07:52:37;106.75;;;50.30;;
60908;SDS011;46780;48.128;-1.704;2022-09-03T07:55:05;105.72;;;48.65;;
60908;SDS011;46780;48.128;-1.704;2022-09-03T07:57:32;101.40;;;51.17;;
60908;SDS011;46780;48.128;-1.704;2022-09-03T08:00:00;99.15;;;48.85;;
60908;SDS011;46780;48.128;-1.704;2022-09-03T08:02:27;99.57;;;48.47;;
60908;SDS011;46780;48.128;-1.704;2022-09-03T08:04:53;95.30;;;47.00;;
60908;SDS011;46780;48.128;-1.704;2022-09-03T08:07:20;99.22;;;48.00;;
60908;SDS011;46780;48.128;-1.704;2022-09-03T08:09:46;98.95;;;47.05;;
60908;SDS011;46780;48.128;-1.704;2022-09-03T08:12:13;99.53;;;49.42;;
60908;SDS011;46780;48.128;-1.704;2022-09-03T08:14:40;100.03;;;47.25;;
60908;SDS011;46780;48.128;-1.704;2022-09-03T08:17:07;104.63;;;48.78;;
60908;SDS011;46780;48.128;-1.704;2022-09-03T08:19:34;92.93;;;45.15;;
60908;SDS011;46780;48.128;-1.704;2022-09-03T08:22:00;92.47;;;44.28;;
60908;SDS011;46780;48.128;-1.704;2022-09-03T08:24:27;78.55;;;41.42;;
60908;SDS011;46780;48.128;-1.704;2022-09-03T08:26:55;83.25;;;42.65;;
60908;SDS011;46780;48.128;-1.704;2022-09-03T08:29:22;82.95;;;42.80;;
60908;SDS011;46780;48.128;-1.704;2022-09-03T08:31:49;84.03;;;42.95;;
60908;SDS011;46780;48.128;-1.704;2022-09-03T08:34:17;89.45;;;43.85;;
60908;SDS011;46780;48.128;-1.704;2022-09-03T08:36:43;79.00;;;40.63;;
60908;SDS011;46780;48.128;-1.704;2022-09-03T08:39:10;82.07;;;43.45;;
60908;SDS011;46780;48.128;-1.704;2022-09-03T08:44:39;84.88;;;41.55;;
60908;SDS011;46780;48.128;-1.704;2022-09-03T08:47:10;82.97;;;43.25;;
60908;SDS011;46780;48.128;-1.704;2022-09-03T08:49:41;76.95;;;42.65;;
60908;SDS011;46780;48.128;-1.704;2022-09-03T08:52:15;78.88;;;40.22;;
60908;SDS011;46780;48.128;-1.704;2022-09-03T08:54:48;80.03;;;40.05;;
60908;SDS011;46780;48.128;-1.704;2022-09-03T08:57:17;79.90;;;40.03;;
60908;SDS011;46780;48.128;-1.704;2022-09-03T08:59:45;75.60;;;38.80;;
60908;SDS011;46780;48.128;-1.704;2022-09-03T09:02:16;69.90;;;38.03;;
60908;SDS011;46780;48.128;-1.704;2022-09-03T09:04:55;69.85;;;36.97;;
60908;SDS011;46780;48.128;-1.704;2022-09-03T09:07:29;64.03;;;36.13;;
60908;SDS011;46780;48.128;-1.704;2022-09-03T09:10:02;70.03;;;35.35;;
60908;SDS011;46780;48.128;-1.704;2022-09-03T09:12:38;63.70;;;34.58;;
60908;SDS011;46780;48.128;-1.704;2022-09-03T09:15:10;57.95;;;32.60;;
60908;SDS011;46780;48.128;-1.704;2022-09-03T09:17:46;54.85;;;31.75;;
60908;SDS011;46780;48.128;-1.704;2022-09-03T09:20:22;55.35;;;30.70;;
60908;SDS011;46780;48.128;-1.704;2022-09-03T09:22:59;53.85;;;30.73;;
60908;SDS011;46780;48.128;-1.704;2022-09-03T09:25:28;53.47;;;29.77;;
60908;SDS011;46780;48.128;-1.704;2022-09-03T09:27:55;59.45;;;31.17;;
60908;SDS011;46780;48.128;-1.704;2022-09-03T09:30:25;53.50;;;30.43;;
60908;SDS011;46780;48.128;-1.704;2022-09-03T09:32:52;51.28;;;28.45;;
60908;SDS011;46780;48.128;-1.704;2022-09-03T09:35:19;53.60;;;28.90;;
60908;SDS011;46780;48.128;-1.704;2022-09-03T09:37:48;51.95;;;28.88;;
60908;SDS011;46780;48.128;-1.704;2022-09-03T09:40:22;46.78;;;27.10;;
60908;SDS011;46780;48.128;-1.704;2022-09-03T09:43:01;40.97;;;24.85;;
60908;SDS011;46780;48.128;-1.704;2022-09-03T09:45:31;44.83;;;26.75;;
60908;SDS011;46780;48.128;-1.704;2022-09-03T09:47:58;44.08;;;27.13;;
60908;SDS011;46780;48.128;-1.704;2022-09-03T09:50:26;49.20;;;27.00;;
60908;SDS011;46780;48.128;-1.704;2022-09-03T09:53:01;41.08;;;23.40;;
60908;SDS011;46780;48.128;-1.704;2022-09-03T09:55:30;43.60;;;24.15;;
60908;SDS011;46780;48.128;-1.704;2022-09-03T09:58:03;40.92;;;23.23;;
60908;SDS011;46780;48.128;-1.704;2022-09-03T10:00:30;36.28;;;21.95;;
60908;SDS011;46780;48.128;-1.704;2022-09-03T10:02:57;42.78;;;22.85;;
60908;SDS011;46780;48.128;-1.704;2022-09-03T10:05:24;39.88;;;21.88;;
60908;SDS011;46780;48.128;-1.704;2022-09-03T10:07:56;38.83;;;21.67;;
60908;SDS011;46780;48.128;-1.704;2022-09-03T10:10:24;38.70;;;22.17;;
60908;SDS011;46780;48.128;-1.704;2022-09-03T10:17:55;38.80;;;22.10;;
60908;SDS011;46780;48.128;-1.704;2022-09-03T10:20:29;39.05;;;20.10;;
60908;SDS011;46780;48.128;-1.704;2022-09-03T10:23:06;34.85;;;18.65;;
60908;SDS011;46780;48.128;-1.704;2022-09-03T10:25:41;34.03;;;18.02;;
60908;SDS011;46780;48.128;-1.704;2022-09-03T10:28:20;36.42;;;17.55;;
60908;SDS011;46780;48.128;-1.704;2022-09-03T10:30:56;29.95;;;16.20;;
60908;SDS011;46780;48.128;-1.704;2022-09-03T10:33:37;26.25;;;15.05;;
60908;SDS011;46780;48.128;-1.704;2022-09-03T10:36:10;29.02;;;14.40;;
60908;SDS011;46780;48.128;-1.704;2022-09-03T10:38:42;28.67;;;13.70;;
60908;SDS011;46780;48.128;-1.704;2022-09-03T10:41:20;27.63;;;13.43;;
60908;SDS011;46780;48.128;-1.704;2022-09-03T10:44:05;25.63;;;13.52;;
60908;SDS011;46780;48.128;-1.704;2022-09-03T10:46:50;32.95;;;13.48;;
60908;SDS011;46780;48.128;-1.704;2022-09-03T10:49:27;28.45;;;13.30;;
60908;SDS011;46780;48.128;-1.704;2022-09-03T10:52:01;25.23;;;11.10;;
60908;SDS011;46780;48.128;-1.704;2022-09-03T10:54:37;23.10;;;10.85;;
60908;SDS011;46780;48.128;-1.704;2022-09-03T10:57:26;25.58;;;10.95;;
60908;SDS011;46780;48.128;-1.704;2022-09-03T11:00:01;22.00;;;10.57;;
60908;SDS011;46780;48.128;-1.704;2022-09-03T11:02:34;23.27;;;10.90;;
60908;SDS011;46780;48.128;-1.704;2022-09-03T11:05:26;20.60;;;10.88;;
60908;SDS011;46780;48.128;-1.704;2022-09-03T11:07:56;22.40;;;10.52;;
60908;SDS011;46780;48.128;-1.704;2022-09-03T11:10:28;20.35;;;9.82;;
60908;SDS011;46780;48.128;-1.704;2022-09-03T11:13:00;23.25;;;10.60;;
60908;SDS011;46780;48.128;-1.704;2022-09-03T11:15:32;20.92;;;10.35;;
60908;SDS011;46780;48.128;-1.704;2022-09-03T11:18:06;19.52;;;9.32;;
60908;SDS011;46780;48.128;-1.704;2022-09-03T11:20:40;21.00;;;10.30;;
60908;SDS011;46780;48.128;-1.704;2022-09-03T11:23:08;18.88;;;9.18;;
60908;SDS011;46780;48.128;-1.704;2022-09-03T11:25:40;19.52;;;9.75;;
60908;SDS011;46780;48.128;-1.704;2022-09-03T11:28:15;19.67;;;9.27;;
60908;SDS011;46780;48.128;-1.704;2022-09-03T11:31:01;23.23;;;9.50;;
60908;SDS011;46780;48.128;-1.704;2022-09-03T11:33:33;18.63;;;9.13;;
60908;SDS011;46780;48.128;-1.704;2022-09-03T11:36:05;20.02;;;7.57;;
60908;SDS011;46780;48.128;-1.704;2022-09-03T11:38:32;19.35;;;7.63;;
60908;SDS011;46780;48.128;-1.704;2022-09-03T11:41:00;19.90;;;7.25;;
60908;SDS011;46780;48.128;-1.704;2022-09-03T11:43:30;16.45;;;7.07;;
60908;SDS011;46780;48.128;-1.704;2022-09-03T11:46:02;16.55;;;8.38;;
60908;SDS011;46780;48.128;-1.704;2022-09-03T11:48:36;27.67;;;8.80;;
60908;SDS011;46780;48.128;-1.704;2022-09-03T11:51:14;19.73;;;8.75;;
60908;SDS011;46780;48.128;-1.704;2022-09-03T11:53:52;17.13;;;8.32;;
60908;SDS011;46780;48.128;-1.704;2022-09-03T11:56:19;20.35;;;8.50;;
60908;SDS011;46780;48.128;-1.704;2022-09-03T11:58:57;20.98;;;8.65;;
60908;SDS011;46780;48.128;-1.704;2022-09-03T12:01:25;19.23;;;9.23;;
60908;SDS011;46780;48.128;-1.704;2022-09-03T12:03:53;23.35;;;9.10;;
60908;SDS011;46780;48.128;-1.704;2022-09-03T12:06:30;21.13;;;9.20;;
60908;SDS011;46780;48.128;-1.704;2022-09-03T12:09:16;17.13;;;8.13;;
60908;SDS011;46780;48.128;-1.704;2022-09-03T12:11:59;17.70;;;8.35;;
60908;SDS011;46780;48.128;-1.704;2022-09-03T12:14:39;24.02;;;9.23;;
60908;SDS011;46780;48.128;-1.704;2022-09-03T12:17:18;22.55;;;8.23;;
60908;SDS011;46780;48.128;-1.704;2022-09-03T12:19:53;20.58;;;8.07;;
60908;SDS011;46780;48.128;-1.704;2022-09-03T12:22:21;15.13;;;7.80;;
60908;SDS011;46780;48.128;-1.704;2022-09-03T12:24:49;21.48;;;7.90;;
60908;SDS011;46780;48.128;-1.704;2022-09-03T12:27:17;15.75;;;7.25;;
60908;SDS011;46780;48.128;-1.704;2022-09-03T12:29:53;18.77;;;7.43;;
60908;SDS011;46780;48.128;-1.704;2022-09-03T12:32:21;16.60;;;7.00;;
60908;SDS011;46780;48.128;-1.704;2022-09-03T12:34:47;15.57;;;6.20;;
60908;SDS011;46780;48.128;-1.704;2022-09-03T12:37:18;15.88;;;6.43;;
60908;SDS011;46780;48.128;-1.704;2022-09-03T12:39:49;18.95;;;6.30;;
60908;SDS011;46780;48.128;-1.704;2022-09-03T12:42:17;18.23;;;6.30;;
60908;SDS011;46780;48.128;-1.704;2022-09-03T12:44:47;18.52;;;6.65;;
60908;SDS011;46780;48.128;-1.704;2022-09-03T12:47:15;21.15;;;6.60;;
60908;SDS011;46780;48.128;-1.704;2022-09-03T12:49:44;15.60;;;6.47;;
60908;SDS011;46780;48.128;-1.704;2022-09-03T12:52:14;14.25;;;5.93;;
60908;SDS011;46780;48.128;-1.704;2022-09-03T12:54:46;12.95;;;5.30;;
60908;SDS011;46780;48.128;-1.704;2022-09-03T12:57:18;15.45;;;5.25;;
60908;SDS011;46780;48.128;-1.704;2022-09-03T12:59:47;17.13;;;5.22;;
60908;SDS011;46780;48.128;-1.704;2022-09-03T13:02:17;15.43;;;5.47;;
60908;SDS011;46780;48.128;-1.704;2022-09-03T13:04:47;12.48;;;4.40;;
60908;SDS011;46780;48.128;-1.704;2022-09-03T13:07:19;9.88;;;3.90;;
60908;SDS011;46780;48.128;-1.704;2022-09-03T13:09:53;17.90;;;4.40;;
60908;SDS011;46780;48.128;-1.704;2022-09-03T13:12:28;17.27;;;4.40;;
60908;SDS011;46780;48.128;-1.704;2022-09-03T13:14:56;14.32;;;4.72;;
60908;SDS011;46780;48.128;-1.704;2022-09-03T13:17:34;12.27;;;4.35;;
60908;SDS011;46780;48.128;-1.704;2022-09-03T13:20:19;16.73;;;5.07;;
60908;SDS011;46780;48.128;-1.704;2022-09-03T13:23:07;14.43;;;4.20;;
60908;SDS011;46780;48.128;-1.704;2022-09-03T13:25:54;12.63;;;4.50;;
60908;SDS011;46780;48.128;-1.704;2022-09-03T13:28:31;17.83;;;4.50;;
60908;SDS011;46780;48.128;-1.704;2022-09-03T13:31:09;14.87;;;4.77;;
60908;SDS011;46780;48.128;-1.704;2022-09-03T13:33:47;15.20;;;4.60;;
60908;SDS011;46780;48.128;-1.704;2022-09-03T13:36:17;12.32;;;4.20;;
60908;SDS011;46780;48.128;-1.704;2022-09-03T13:38:49;11.55;;;4.10;;
60908;SDS011;46780;48.128;-1.704;2022-09-03T13:41:23;11.98;;;4.40;;
60908;SDS011;46780;48.128;-1.704;2022-09-03T13:43:58;13.43;;;4.35;;
60908;SDS011;46780;48.128;-1.704;2022-09-03T13:46:28;16.40;;;4.13;;
60908;SDS011;46780;48.128;-1.704;2022-09-03T13:49:07;15.48;;;4.95;;
60908;SDS011;46780;48.128;-1.704;2022-09-03T13:51:48;13.88;;;4.30;;
60908;SDS011;46780;48.128;-1.704;2022-09-03T13:54:18;15.30;;;4.47;;
60908;SDS011;46780;48.128;-1.704;2022-09-03T13:56:52;14.63;;;4.07;;
60908;SDS011;46780;48.128;-1.704;2022-09-03T13:59:24;13.90;;;4.68;;
60908;SDS011;46780;48.128;-1.704;2022-09-03T14:02:07;14.88;;;4.60;;
60908;SDS011;46780;48.128;-1.704;2022-09-03T14:04:43;14.00;;;4.40;;
60908;SDS011;46780;48.128;-1.704;2022-09-03T14:07:19;13.70;;;4.22;;
60908;SDS011;46780;48.128;-1.704;2022-09-03T14:09:53;15.02;;;3.90;;
60908;SDS011;46780;48.128;-1.704;2022-09-03T14:12:28;14.63;;;4.15;;
60908;SDS011;46780;48.128;-1.704;2022-09-03T14:15:03;9.55;;;3.80;;
60908;SDS011;46780;48.128;-1.704;2022-09-03T14:17:36;11.77;;;4.07;;
60908;SDS011;46780;48.128;-1.704;2022-09-03T14:20:10;10.95;;;3.60;;
60908;SDS011;46780;48.128;-1.704;2022-09-03T14:22:44;13.27;;;3.97;;
60908;SDS011;46780;48.128;-1.704;2022-09-03T14:25:17;13.82;;;3.90;;
60908;SDS011;46780;48.128;-1.704;2022-09-03T14:27:47;12.13;;;3.75;;
60908;SDS011;46780;48.128;-1.704;2022-09-03T14:30:18;14.38;;;3.60;;
60908;SDS011;46780;48.128;-1.704;2022-09-03T14:38:45;15.40;;;3.80;;
60908;SDS011;46780;48.128;-1.704;2022-09-03T14:41:31;12.63;;;3.90;;
60908;SDS011;46780;48.128;-1.704;2022-09-03T14:47:11;13.88;;;4.05;;
60908;SDS011;46780;48.128;-1.704;2022-09-03T14:49:52;14.52;;;4.13;;
60908;SDS011;46780;48.128;-1.704;2022-09-03T14:55:19;12.13;;;3.50;;
60908;SDS011;46780;48.128;-1.704;2022-09-03T14:58:10;12.68;;;3.35;;
60908;SDS011;46780;48.128;-1.704;2022-09-03T15:00:56;12.73;;;3.30;;